createdAt,value
2022-10-28T00:00:30.991Z,100.00
2022-10-28T00:03:00.778Z,100.00
2022-10-28T00:05:28.353Z,100.00
2022-10-28T00:07:55.196Z,100.00
2022-10-28T00:10:21.788Z,100.00
2022-10-28T00:12:48.281Z,100.00
2022-10-28T00:15:14.790Z,100.00
2022-10-28T00:17:41.258Z,100.00
2022-10-28T00:20:08.197Z,100.00
2022-10-28T00:22:34.676Z,100.00
2022-10-28T00:25:01.153Z,100.00
2022-10-28T00:27:30.055Z,100.00
2022-10-28T00:29:56.948Z,100.00
2022-10-28T00:32:23.434Z,100.00
2022-10-28T00:34:50.054Z,100.00
2022-10-28T00:37:17.974Z,100.00
2022-10-28T00:39:44.414Z,100.00
2022-10-28T00:42:11.883Z,100.00
2022-10-28T00:44:57.063Z,100.00
2022-10-28T00:47:42.259Z,100.00
2022-10-28T00:50:14.068Z,100.00
2022-10-28T00:52:40.581Z,100.00
2022-10-28T00:55:07.798Z,100.00
2022-10-28T00:57:36.447Z,100.00
2022-10-28T01:00:05.066Z,100.00
2022-10-28T01:02:32.633Z,100.00
2022-10-28T01:04:59.112Z,100.00
2022-10-28T01:07:25.806Z,100.00
2022-10-28T01:09:52.622Z,100.00
2022-10-28T01:12:33.721Z,100.00
2022-10-28T01:15:02.877Z,100.00
2022-10-28T01:17:29.202Z,100.00
2022-10-28T01:20:07.732Z,100.00
2022-10-28T01:22:40.183Z,100.00
2022-10-28T01:25:15.757Z,100.00
2022-10-28T01:27:48.273Z,100.00
2022-10-28T01:30:25.409Z,100.00
2022-10-28T01:32:56.028Z,100.00
2022-10-28T01:38:01.788Z,100.00
2022-10-28T01:40:31.022Z,100.00
2022-10-28T01:43:12.023Z,100.00
2022-10-28T01:45:51.972Z,100.00
2022-10-28T01:48:29.381Z,100.00
2022-10-28T01:51:05.238Z,100.00
2022-10-28T01:53:33.833Z,100.00
2022-10-28T01:56:02.771Z,100.00
2022-10-28T01:58:31.123Z,100.00
2022-10-28T02:01:00.694Z,100.00
2022-10-28T02:03:27.820Z,100.00
2022-10-28T02:06:00.020Z,100.00
2022-10-28T02:08:33.440Z,100.00
2022-10-28T02:11:18.347Z,100.00
2022-10-28T02:13:44.664Z,100.00
2022-10-28T02:16:20.181Z,100.00
2022-10-28T02:18:59.058Z,100.00
2022-10-28T02:21:44.594Z,100.00
2022-10-28T02:24:15.354Z,100.00
2022-10-28T02:26:46.172Z,100.00
2022-10-28T02:29:12.859Z,100.00
2022-10-28T02:32:08.703Z,100.00
2022-10-28T02:34:40.543Z,100.00
2022-10-28T02:37:11.618Z,100.00
2022-10-28T02:39:43.536Z,100.00
2022-10-28T02:42:16.631Z,100.00
2022-10-28T02:44:45.303Z,100.00
2022-10-28T02:47:14.034Z,100.00
2022-10-28T02:49:43.794Z,100.00
2022-10-28T02:52:10.817Z,100.00
2022-10-28T02:54:43.804Z,100.00
2022-10-28T02:57:14.491Z,100.00
2022-10-28T02:59:44.022Z,100.00
2022-10-28T03:02:10.447Z,100.00
2022-10-28T03:04:37.271Z,100.00
2022-10-28T03:07:04.797Z,100.00
2022-10-28T03:09:31.551Z,100.00
2022-10-28T03:11:57.914Z,100.00
2022-10-28T03:14:24.313Z,100.00
2022-10-28T03:16:50.743Z,100.00
2022-10-28T03:19:17.103Z,100.00
2022-10-28T03:21:43.436Z,100.00
2022-10-28T03:24:09.832Z,100.00
2022-10-28T03:26:36.234Z,100.00
2022-10-28T03:29:02.670Z,100.00
2022-10-28T03:31:29.069Z,100.00
2022-10-28T03:33:55.439Z,100.00
2022-10-28T03:36:22.921Z,100.00
2022-10-28T03:38:49.309Z,100.00
2022-10-28T03:41:15.684Z,100.00
2022-10-28T03:43:42.045Z,100.00
2022-10-28T03:46:08.465Z,100.00
2022-10-28T03:48:34.886Z,100.00
2022-10-28T03:51:01.239Z,100.00
2022-10-28T03:53:29.083Z,100.00
2022-10-28T03:55:58.852Z,100.00
2022-10-28T03:58:25.493Z,100.00
2022-10-28T04:00:52.594Z,100.00
2022-10-28T04:03:19.973Z,100.00
2022-10-28T04:05:48.349Z,100.00
2022-10-28T04:08:15.130Z,100.00
2022-10-28T04:10:47.017Z,100.00
2022-10-28T04:13:14.119Z,100.00
2022-10-28T04:15:40.497Z,100.00
2022-10-28T04:18:07.183Z,100.00
2022-10-28T04:20:33.661Z,100.00
2022-10-28T04:23:00.315Z,100.00
2022-10-28T04:25:27.567Z,100.00
2022-10-28T04:27:54.617Z,100.00
2022-10-28T04:30:21.269Z,100.00
2022-10-28T04:32:47.621Z,100.00
2022-10-28T04:35:14.235Z,100.00
2022-10-28T04:37:40.994Z,100.00
2022-10-28T04:40:08.083Z,100.00
2022-10-28T04:42:34.469Z,100.00
2022-10-28T04:45:00.801Z,100.00
2022-10-28T04:47:27.206Z,100.00
2022-10-28T04:49:53.608Z,100.00
2022-10-28T04:52:19.996Z,100.00
2022-10-28T04:54:46.351Z,100.00
2022-10-28T04:57:12.726Z,100.00
2022-10-28T04:59:39.112Z,100.00
2022-10-28T05:02:05.644Z,100.00
2022-10-28T05:04:32.071Z,100.00
2022-10-28T05:06:58.402Z,100.00
2022-10-28T05:09:24.739Z,100.00
2022-10-28T05:11:51.092Z,100.00
2022-10-28T05:14:17.465Z,100.00
2022-10-28T05:16:43.798Z,100.00
2022-10-28T05:19:10.174Z,100.00
2022-10-28T05:21:36.513Z,100.00
2022-10-28T05:24:02.849Z,100.00
2022-10-28T05:26:29.186Z,100.00
2022-10-28T05:28:55.551Z,100.00
2022-10-28T05:31:23.128Z,100.00
2022-10-28T05:33:49.536Z,100.00
2022-10-28T05:36:15.883Z,100.00
2022-10-28T05:38:45.309Z,100.00
2022-10-28T05:41:12.112Z,100.00
2022-10-28T05:43:38.472Z,100.00
2022-10-28T05:46:05.046Z,100.00
2022-10-28T05:48:34.165Z,100.00
2022-10-28T05:51:00.520Z,100.00
2022-10-28T05:53:26.872Z,100.00
2022-10-28T05:55:53.197Z,100.00
2022-10-28T05:58:19.627Z,100.00
2022-10-28T06:00:45.985Z,100.00
2022-10-28T06:03:12.491Z,100.00
2022-10-28T06:05:39.983Z,100.00
2022-10-28T06:08:06.426Z,100.00
2022-10-28T06:10:33.010Z,100.00
2022-10-28T06:12:57.990Z,100.00
2022-10-28T06:15:24.749Z,100.00
2022-10-28T06:17:51.126Z,100.00
2022-10-28T06:20:18.100Z,100.00
2022-10-28T06:22:48.480Z,100.00
2022-10-28T06:25:14.968Z,100.00
2022-10-28T06:27:41.309Z,100.00
2022-10-28T06:30:07.996Z,100.00
2022-10-28T06:32:34.386Z,100.00
2022-10-28T06:35:00.782Z,100.00
2022-10-28T06:37:27.109Z,100.00
2022-10-28T06:39:53.524Z,100.00
2022-10-28T06:42:19.856Z,100.00
2022-10-28T06:44:46.354Z,100.00
2022-10-28T06:47:14.194Z,100.00
2022-10-28T06:49:40.609Z,100.00
2022-10-28T06:52:06.941Z,100.00
2022-10-28T06:54:33.285Z,100.00
2022-10-28T06:56:59.748Z,100.00
2022-10-28T06:59:26.264Z,100.00
2022-10-28T07:01:52.783Z,100.00
2022-10-28T07:04:19.378Z,100.00
2022-10-28T07:06:48.580Z,100.00
2022-10-28T07:09:17.719Z,100.00
2022-10-28T07:11:51.039Z,100.00
2022-10-28T07:14:20.029Z,100.00
2022-10-28T07:16:46.554Z,100.00
2022-10-28T07:19:13.174Z,100.00
2022-10-28T07:21:39.632Z,99.49
2022-10-28T07:24:06.308Z,91.05
2022-10-28T07:26:32.817Z,81.88
2022-10-28T07:28:59.308Z,73.89
2022-10-28T07:31:27.685Z,74.56
2022-10-28T07:33:54.886Z,65.74
2022-10-28T07:36:21.656Z,66.65
2022-10-28T07:38:54.901Z,66.65
2022-10-28T07:41:22.242Z,65.38
2022-10-28T07:43:48.990Z,66.17
2022-10-28T07:46:16.585Z,70.31
2022-10-28T07:48:43.293Z,64.31
2022-10-28T07:51:12.439Z,61.24
2022-10-28T07:53:40.000Z,64.03
2022-10-28T07:56:10.220Z,63.51
2022-10-28T07:58:36.918Z,67.19
2022-10-28T08:01:05.946Z,64.07
2022-10-28T08:03:38.642Z,63.70
2022-10-28T08:06:09.644Z,61.76
2022-10-28T08:08:37.047Z,62.75
2022-10-28T08:11:29.866Z,59.76
2022-10-28T08:13:57.354Z,63.39
2022-10-28T08:16:23.833Z,57.71
2022-10-28T08:18:50.497Z,55.85
2022-10-28T08:21:17.050Z,55.04
2022-10-28T08:23:46.538Z,59.00
2022-10-28T08:26:14.030Z,58.56
2022-10-28T08:28:40.838Z,58.97
2022-10-28T08:31:12.278Z,61.32
2022-10-28T08:33:42.224Z,59.33
2022-10-28T08:36:11.527Z,57.98
2022-10-28T08:38:41.636Z,56.32
2022-10-28T08:42:08.956Z,57.33
2022-10-28T08:44:57.980Z,56.53
2022-10-28T08:47:33.317Z,52.05
2022-10-28T08:50:05.317Z,55.85
2022-10-28T08:52:55.239Z,51.73
2022-10-28T08:55:36.138Z,50.23
2022-10-28T08:58:16.556Z,51.61
2022-10-28T09:00:46.862Z,46.68
2022-10-28T09:03:23.130Z,50.05
2022-10-28T09:05:58.384Z,50.54
2022-10-28T09:08:28.685Z,49.33
2022-10-28T09:11:09.915Z,44.09
2022-10-28T09:13:54.529Z,46.04
2022-10-28T09:16:29.114Z,48.79
2022-10-28T09:19:06.011Z,47.68
2022-10-28T09:21:56.989Z,48.78
2022-10-28T09:24:29.967Z,49.84
2022-10-28T09:27:10.026Z,48.84
2022-10-28T09:30:47.287Z,50.48
2022-10-28T09:33:35.407Z,46.70
2022-10-28T09:36:04.201Z,46.90
2022-10-28T09:38:33.878Z,48.01
2022-10-28T09:41:06.434Z,46.30
2022-10-28T09:43:42.797Z,43.01
2022-10-28T09:46:15.448Z,44.05
2022-10-28T09:48:46.369Z,39.90
2022-10-28T09:51:28.734Z,41.69
2022-10-28T09:53:59.801Z,42.84
2022-10-28T09:56:28.006Z,41.89
2022-10-28T09:58:57.673Z,36.51
2022-10-28T10:01:24.296Z,37.55
2022-10-28T10:03:52.276Z,35.00
2022-10-28T10:06:25.030Z,30.25
2022-10-28T10:08:52.881Z,33.92
2022-10-28T10:11:28.635Z,30.70
2022-10-28T10:13:58.715Z,34.03
2022-10-28T10:16:40.074Z,31.77
2022-10-28T10:19:08.966Z,33.41
2022-10-28T10:21:50.046Z,32.43
2022-10-28T10:24:28.823Z,31.22
2022-10-28T10:26:55.393Z,32.52
2022-10-28T10:29:22.664Z,35.00
2022-10-28T10:32:04.524Z,38.06
2022-10-28T10:34:31.406Z,32.08
2022-10-28T10:36:58.039Z,31.58
2022-10-28T10:39:31.173Z,31.99
2022-10-28T10:41:57.631Z,32.85
2022-10-28T10:44:33.139Z,32.07
2022-10-28T10:47:03.467Z,34.77
2022-10-28T10:49:32.921Z,40.23
2022-10-28T10:52:09.583Z,43.38
2022-10-28T10:54:38.089Z,44.80
2022-10-28T10:57:09.564Z,42.64
2022-10-28T10:59:40.413Z,37.71
2022-10-28T11:02:26.314Z,36.49
2022-10-28T11:04:59.501Z,36.34
2022-10-28T11:07:28.292Z,35.40
2022-10-28T11:09:55.620Z,33.77
2022-10-28T11:12:33.344Z,34.07
2022-10-28T11:15:02.541Z,32.19
2022-10-28T11:17:34.339Z,31.85
2022-10-28T11:20:24.925Z,31.71
2022-10-28T11:23:23.484Z,33.73
2022-10-28T11:25:54.369Z,35.02
2022-10-28T11:28:33.420Z,36.43
2022-10-28T11:31:16.258Z,38.59
2022-10-28T11:33:54.525Z,38.91
2022-10-28T11:36:42.779Z,41.14
2022-10-28T11:39:31.849Z,41.90
2022-10-28T11:41:58.163Z,42.33
2022-10-28T11:44:48.861Z,43.05
2022-10-28T11:47:27.995Z,41.67
2022-10-28T11:50:14.134Z,36.92
2022-10-28T11:53:00.101Z,36.01
2022-10-28T11:55:39.159Z,39.10
2022-10-28T11:58:38.798Z,40.38
2022-10-28T12:01:40.840Z,40.58
2022-10-28T12:04:33.009Z,37.89
2022-10-28T12:07:38.858Z,38.82
2022-10-28T12:10:08.253Z,40.85
2022-10-28T12:12:48.785Z,40.72
2022-10-28T12:15:40.114Z,37.93
2022-10-28T12:18:06.563Z,42.06
2022-10-28T12:20:58.245Z,42.95
2022-10-28T12:23:26.606Z,42.84
2022-10-28T12:25:57.385Z,43.34
2022-10-28T12:28:56.674Z,43.71
2022-10-28T12:31:25.732Z,43.57
2022-10-28T12:33:59.089Z,50.93
2022-10-28T12:36:28.438Z,50.36
2022-10-28T12:39:02.693Z,51.51
2022-10-28T12:41:47.425Z,54.12
2022-10-28T12:44:18.968Z,55.69
2022-10-28T12:49:48.499Z,54.02
2022-10-28T12:52:31.010Z,56.51
2022-10-28T12:55:03.870Z,58.56
2022-10-28T12:57:34.460Z,61.32
2022-10-28T13:00:11.014Z,61.74
2022-10-28T13:03:10.665Z,63.27
2022-10-28T13:05:42.687Z,62.25
2022-10-28T13:08:29.380Z,64.39
2022-10-28T13:11:30.812Z,67.79
2022-10-28T13:14:15.807Z,64.09
2022-10-28T13:16:54.599Z,66.87
2022-10-28T13:19:36.694Z,70.21
2022-10-28T13:22:15.138Z,72.03
2022-10-28T13:25:09.279Z,72.65
2022-10-28T13:30:19.499Z,74.26
2022-10-28T13:32:46.144Z,73.88
2022-10-28T13:35:23.014Z,74.29
2022-10-28T13:37:52.860Z,75.53
2022-10-28T13:40:42.547Z,74.21
2022-10-28T13:43:20.269Z,74.87
2022-10-28T13:45:53.124Z,72.47
2022-10-28T13:48:28.725Z,75.16
2022-10-28T13:51:10.156Z,76.84
2022-10-28T13:53:45.750Z,78.01
2022-10-28T13:56:27.133Z,77.55
2022-10-28T13:59:03.787Z,79.40
2022-10-28T14:02:01.275Z,82.37
2022-10-28T14:04:37.969Z,81.32
2022-10-28T14:07:10.573Z,81.98
2022-10-28T14:09:37.730Z,81.14
2022-10-28T14:12:11.648Z,82.29
2022-10-28T14:14:38.201Z,85.17
2022-10-28T14:17:05.661Z,82.70
2022-10-28T14:19:32.116Z,84.39
2022-10-28T14:22:02.106Z,84.72
2022-10-28T14:24:33.985Z,85.17
2022-10-28T14:27:06.628Z,87.17
2022-10-28T14:29:43.126Z,87.59
2022-10-28T14:32:28.130Z,91.72
2022-10-28T14:34:56.087Z,95.02
2022-10-28T14:37:41.203Z,97.60
2022-10-28T14:40:16.710Z,97.09
2022-10-28T14:45:34.328Z,98.39
2022-10-28T14:48:09.746Z,98.75
2022-10-28T14:50:40.363Z,100.00
2022-10-28T14:53:12.589Z,100.00
2022-10-28T14:55:39.402Z,100.00
2022-10-28T14:58:12.949Z,100.00
2022-10-28T15:00:42.850Z,100.00
2022-10-28T15:03:10.910Z,100.00
2022-10-28T15:05:37.338Z,100.00
2022-10-28T15:08:04.176Z,100.00
2022-10-28T15:10:33.660Z,100.00
2022-10-28T15:13:00.334Z,100.00
2022-10-28T15:15:28.400Z,100.00
2022-10-28T15:17:57.200Z,100.00
2022-10-28T15:20:27.755Z,100.00
2022-10-28T15:23:10.159Z,100.00
2022-10-28T15:25:36.547Z,100.00
2022-10-28T15:28:03.057Z,100.00
2022-10-28T15:30:29.764Z,100.00
2022-10-28T15:33:16.098Z,100.00
2022-10-28T15:35:42.691Z,100.00
2022-10-28T15:38:21.326Z,100.00
2022-10-28T15:40:48.005Z,100.00
2022-10-28T15:43:18.910Z,100.00
2022-10-28T15:45:45.840Z,100.00
2022-10-28T15:48:13.711Z,100.00
2022-10-28T15:50:40.706Z,100.00
2022-10-28T15:53:07.017Z,100.00
2022-10-28T15:58:20.470Z,100.00
2022-10-28T16:00:54.121Z,100.00
2022-10-28T16:03:41.208Z,100.00
2022-10-28T16:06:19.533Z,100.00
2022-10-28T16:08:46.023Z,100.00
2022-10-28T16:11:19.924Z,100.00
2022-10-28T16:13:48.340Z,100.00
2022-10-28T16:16:16.497Z,100.00
2022-10-28T16:18:45.491Z,100.00
2022-10-28T16:21:17.618Z,100.00
2022-10-28T16:23:47.194Z,100.00
2022-10-28T16:26:13.552Z,100.00
2022-10-28T16:28:44.954Z,100.00
2022-10-28T16:31:14.885Z,100.00
2022-10-28T16:33:41.412Z,100.00
2022-10-28T16:36:07.984Z,100.00
2022-10-28T16:38:34.751Z,100.00
2022-10-28T16:41:01.806Z,100.00
2022-10-28T16:43:29.289Z,100.00
2022-10-28T16:45:56.642Z,100.00
2022-10-28T16:48:23.964Z,100.00
2022-10-28T16:50:54.654Z,100.00
2022-10-28T16:53:21.418Z,100.00
2022-10-28T16:55:48.234Z,100.00
2022-10-28T16:58:14.879Z,100.00
2022-10-28T17:00:41.627Z,100.00
2022-10-28T17:03:10.920Z,100.00
2022-10-28T17:05:37.306Z,100.00
2022-10-28T17:08:07.304Z,100.00
2022-10-28T17:10:36.070Z,100.00
2022-10-28T17:13:03.134Z,100.00
2022-10-28T17:15:29.507Z,100.00
2022-10-28T17:17:55.979Z,100.00
2022-10-28T17:20:22.400Z,100.00
2022-10-28T17:22:48.794Z,100.00
2022-10-28T17:25:15.219Z,100.00
2022-10-28T17:27:42.195Z,100.00
2022-10-28T17:30:08.946Z,100.00
2022-10-28T17:32:35.368Z,100.00
2022-10-28T17:35:01.753Z,100.00
2022-10-28T17:37:28.190Z,100.00
2022-10-28T17:42:21.984Z,100.00
2022-10-28T17:44:48.378Z,100.00
2022-10-28T17:47:14.710Z,100.00
2022-10-28T17:49:41.088Z,100.00
2022-10-28T17:52:07.424Z,100.00
2022-10-28T17:54:33.796Z,100.00
2022-10-28T17:57:00.155Z,100.00
2022-10-28T17:59:26.555Z,100.00
2022-10-28T18:01:54.409Z,100.00
2022-10-28T18:04:26.098Z,100.00
2022-10-28T18:06:53.618Z,100.00
2022-10-28T18:09:20.295Z,100.00
2022-10-28T18:11:46.633Z,100.00
2022-10-28T18:14:12.998Z,100.00
2022-10-28T18:16:39.458Z,100.00
2022-10-28T18:19:06.535Z,100.00
2022-10-28T18:21:33.447Z,100.00
2022-10-28T18:24:06.351Z,100.00
2022-10-28T18:26:33.768Z,100.00
2022-10-28T18:29:03.760Z,100.00
2022-10-28T18:31:31.793Z,100.00
2022-10-28T18:34:00.290Z,100.00
2022-10-28T18:36:27.259Z,100.00
2022-10-28T18:38:53.633Z,100.00
2022-10-28T18:41:23.996Z,100.00
2022-10-28T18:43:57.294Z,100.00
2022-10-28T18:46:25.443Z,100.00
2022-10-28T18:48:52.331Z,100.00
2022-10-28T18:51:18.834Z,100.00
2022-10-28T18:53:46.530Z,100.00
2022-10-28T18:56:13.928Z,100.00
2022-10-28T18:58:40.522Z,100.00
2022-10-28T19:01:11.243Z,100.00
2022-10-28T19:03:38.309Z,100.00
2022-10-28T19:06:06.132Z,100.00
2022-10-28T19:08:32.925Z,100.00
2022-10-28T19:11:01.589Z,100.00
2022-10-28T19:13:28.227Z,100.00
2022-10-28T19:15:54.601Z,100.00
2022-10-28T19:18:21.917Z,100.00
2022-10-28T19:20:48.313Z,100.00
2022-10-28T19:23:14.713Z,100.00
2022-10-28T19:25:41.115Z,100.00
2022-10-28T19:28:07.629Z,100.00
2022-10-28T19:30:34.748Z,100.00
2022-10-28T19:33:01.158Z,100.00
2022-10-28T19:35:27.497Z,100.00
2022-10-28T19:37:53.848Z,100.00
2022-10-28T19:40:20.456Z,100.00
2022-10-28T19:42:46.847Z,100.00
2022-10-28T19:45:13.356Z,100.00
2022-10-28T19:47:39.704Z,100.00
2022-10-28T19:50:06.364Z,100.00
2022-10-28T19:52:32.766Z,100.00
2022-10-28T19:54:59.141Z,100.00
2022-10-28T19:57:25.466Z,100.00
2022-10-28T19:59:51.824Z,100.00
2022-10-28T20:02:18.395Z,100.00
2022-10-28T20:04:45.088Z,100.00
2022-10-28T20:07:11.449Z,100.00
2022-10-28T20:09:37.882Z,100.00
2022-10-28T20:12:04.352Z,100.00
2022-10-28T20:14:32.555Z,100.00
2022-10-28T20:17:05.544Z,100.00
2022-10-28T20:19:32.997Z,100.00
2022-10-28T20:21:59.368Z,100.00
2022-10-28T20:24:26.223Z,100.00
2022-10-28T20:26:52.570Z,100.00
2022-10-28T20:29:18.943Z,100.00
2022-10-28T20:31:45.327Z,100.00
2022-10-28T20:34:11.714Z,100.00
2022-10-28T20:36:39.267Z,100.00
2022-10-28T20:39:13.465Z,100.00
2022-10-28T20:41:40.426Z,100.00
2022-10-28T20:44:07.629Z,100.00
2022-10-28T20:46:34.651Z,100.00
2022-10-28T20:49:01.232Z,100.00
2022-10-28T20:51:28.864Z,100.00
2022-10-28T20:53:55.476Z,100.00
2022-10-28T20:56:28.895Z,100.00
2022-10-28T20:58:55.630Z,100.00
2022-10-28T21:01:23.547Z,100.00
2022-10-28T21:03:53.129Z,100.00
2022-10-28T21:06:19.785Z,100.00
2022-10-28T21:08:46.123Z,100.00
2022-10-28T21:11:13.531Z,100.00
2022-10-28T21:13:40.287Z,100.00
2022-10-28T21:16:08.122Z,100.00
2022-10-28T21:18:35.280Z,100.00
2022-10-28T21:21:01.661Z,100.00
2022-10-28T21:23:28.441Z,100.00
2022-10-28T21:25:59.781Z,100.00
2022-10-28T21:28:30.125Z,100.00
2022-10-28T21:30:59.691Z,100.00
2022-10-28T21:33:26.052Z,100.00
2022-10-28T21:35:56.777Z,100.00
2022-10-28T21:38:23.166Z,100.00
2022-10-28T21:40:49.538Z,100.00
2022-10-28T21:43:16.459Z,100.00
2022-10-28T21:45:42.857Z,100.00
2022-10-28T21:48:09.205Z,100.00
2022-10-28T21:50:35.556Z,100.00
2022-10-28T21:53:04.047Z,100.00
2022-10-28T21:55:45.743Z,100.00
2022-10-28T21:58:13.102Z,100.00
2022-10-28T22:00:39.541Z,100.00
2022-10-28T22:03:06.105Z,100.00
2022-10-28T22:05:32.490Z,100.00
2022-10-28T22:08:00.977Z,100.00
2022-10-28T22:10:29.677Z,100.00
2022-10-28T22:12:56.076Z,100.00
2022-10-28T22:15:23.076Z,100.00
2022-10-28T22:17:49.410Z,100.00
2022-10-28T22:20:15.924Z,100.00
2022-10-28T22:22:42.316Z,100.00
2022-10-28T22:25:10.465Z,100.00
2022-10-28T22:27:37.208Z,100.00
2022-10-28T22:30:03.897Z,100.00
2022-10-28T22:32:30.216Z,100.00
2022-10-28T22:34:57.999Z,100.00
2022-10-28T22:37:24.358Z,100.00
2022-10-28T22:39:50.715Z,100.00
2022-10-28T22:42:17.038Z,100.00
2022-10-28T22:44:44.382Z,100.00
2022-10-28T22:47:10.846Z,100.00
2022-10-28T22:49:37.185Z,100.00
2022-10-28T22:52:03.595Z,100.00
2022-10-28T22:54:29.934Z,100.00
2022-10-28T22:56:56.304Z,100.00
2022-10-28T22:59:22.621Z,100.00
2022-10-28T23:01:49.026Z,100.00
2022-10-28T23:04:15.596Z,100.00
2022-10-28T23:06:42.037Z,100.00
2022-10-28T23:09:08.356Z,100.00
2022-10-28T23:11:34.885Z,100.00
2022-10-28T23:14:01.210Z,100.00
2022-10-28T23:16:27.669Z,100.00
2022-10-28T23:18:54.115Z,100.00
2022-10-28T23:21:21.906Z,100.00
2022-10-28T23:23:53.940Z,100.00
2022-10-28T23:26:21.032Z,100.00
2022-10-28T23:28:50.203Z,100.00
2022-10-28T23:31:16.563Z,100.00
2022-10-28T23:33:43.002Z,100.00
2022-10-28T23:36:10.918Z,100.00
2022-10-28T23:38:37.250Z,100.00
2022-10-28T23:41:04.968Z,100.00
2022-10-28T23:43:32.077Z,100.00
2022-10-28T23:46:00.204Z,100.00
2022-10-28T23:48:27.466Z,100.00
2022-10-28T23:50:58.579Z,100.00
2022-10-28T23:53:25.066Z,100.00
2022-10-28T23:55:51.797Z,100.00
2022-10-28T23:58:19.676Z,100.00
